Time;durP1;ratioP1;P1;durP2;ratioP2;P2;SDS_P1;SDS_P2;PMS_P1;PMS_P2;Temp;Humidity;BMP_temperature;BMP_pressure;BME280_temperature;BME280_humidity;BME280_pressure;Samples;Min_cycle;Max_cycle;Signal;HPM_P1;HPM_P2
2024/02/08 00:01:22;;;;;;;;;;;;;;;;;;4966253;28;5279;-58
2024/02/08 00:03:48;;;;;;;;;;;;;;;;;;4947496;28;1123;-57
2024/02/08 00:06:14;;;;;;;;;;;;;;;;;;4964398;28;5022;-60
2024/02/08 00:08:39;;;;;;;;;;;;;;;;;;4967266;28;5063;-55
2024/02/08 00:11:06;;;;;;;;;;;;;;;;;;4962178;28;5244;-57
2024/02/08 00:13:31;;;;;;;;;;;;;;;;;;4965213;28;5074;-58
2024/02/08 00:15:57;;;;;;;;;;;;;;;;;;4964578;28;3238;-55
2024/02/08 00:18:22;;;;;;;;;;;;;;;;;;4965712;28;4449;-56
2024/02/08 00:20:47;;;;;;;;;;;;;;;;;;4947784;28;4842;-57
2024/02/08 00:23:14;;;;;;;;;;;;;;;;;;4959033;28;4584;-57
2024/02/08 00:25:39;;;;;;;;;;;;;;;;;;4958014;28;5073;-58
2024/02/08 00:28:11;;;;;;;;;;;;;;;;;;4944823;28;3518;-58
2024/02/08 00:30:38;;;;;;;;;;;;;;;;;;4965042;28;4540;-57
2024/02/08 00:33:03;;;;;;;;;;;;;;;;;;4957345;28;5170;-58
2024/02/08 00:35:29;;;;;;;;;;;;;;;;;;4965807;28;5065;-58
2024/02/08 00:37:54;;;;;;;;;;;;;;;;;;4965910;28;4915;-58
2024/02/08 00:40:19;;;;;;;;;;;;;;;;;;4968042;28;5022;-58
2024/02/08 00:42:47;;;;;;;;;;;;;;;;;;4964810;28;3912;-58
2024/02/08 00:45:16;;;;;;;;;;;;;;;;;;4946793;28;5140;-57
2024/02/08 00:47:41;;;;;;;;;;;;;;;;;;4957456;28;5149;-57
2024/02/08 00:50:07;;;;;;;;;;;;;;;;;;4950572;28;5096;-57
2024/02/08 00:52:33;;;;;;;;;;;;;;;;;;4963589;28;4601;-58
2024/02/08 00:54:59;;;;;;;;;;;;;;;;;;4965437;28;3385;-57
2024/02/08 00:57:28;;;;;;;;;;;;;;;;;;4967417;28;5109;-58
2024/02/08 00:59:53;;;;;;;;;;;;;;;;;;4951761;28;5092;-57
2024/02/08 01:02:18;;;;;;;;;;;;;;;;;;4964704;28;5078;-58
2024/02/08 01:04:48;;;;;;;;;;;;;;;;;;4969130;28;5385;-59
2024/02/08 01:07:14;;;;;;;;;;;;;;;;;;4955153;28;3411;-57
2024/02/08 01:09:39;;;;;;;;;;;;;;;;;;4967471;28;4814;-58
2024/02/08 01:12:05;;;;;;;;;;;;;;;;;;4969974;28;5089;-57
2024/02/08 01:14:30;;;;;;;;;;;;;;;;;;4966239;28;4917;-59
2024/02/08 01:16:55;;;;;;;;;;;;;;;;;;4965194;28;4725;-58
2024/02/08 01:19:25;;;;;;;;;;;;;;;;;;4935940;28;5421;-57
2024/02/08 01:21:50;;;;;;;;;;;;;;;;;;4950084;28;3666;-58
2024/02/08 01:24:18;;;;;;;;;;;;;;;;;;4967213;28;4510;-57
2024/02/08 01:26:46;;;;;;;;;;;;;;;;;;4967557;28;4739;-58
2024/02/08 01:29:12;;;;;;;;;;;;;;;;;;4969802;28;4527;-57
2024/02/08 01:31:37;;;;;;;;;;;;;;;;;;4964741;28;5212;-57
2024/02/08 01:34:05;;;;;;;;;;;;;;;;;;4972238;28;3257;-57
2024/02/08 01:36:31;;;;;;;;;;;;;;;;;;4949672;28;4980;-58
2024/02/08 01:38:56;;;;;;;;;;;;;;;;;;4969465;28;5090;-58
2024/02/08 01:41:21;;;;;;;;;;;;;;;;;;4967257;28;5144;-57
2024/02/08 01:43:47;;;;;;;;;;;;;;;;;;4965704;28;4619;-57
2024/02/08 01:46:12;;;;;;;;;;;;;;;;;;4967587;28;3408;-57
2024/02/08 01:48:41;;;;;;;;;;;;;;;;;;4931953;28;5008;-57
2024/02/08 01:51:11;;;;;;;;;;;;;;;;;;4946960;28;5059;-56
2024/02/08 01:53:37;;;;;;;;;;;;;;;;;;4965739;28;5299;-57
2024/02/08 01:56:03;;;;;;;;;;;;;;;;;;4946046;28;4736;-57
2024/02/08 01:58:30;;;;;;;;;;;;;;;;;;4967123;28;5317;-57
2024/02/08 02:00:56;;;;;;;;;;;;;;;;;;4963647;28;3484;-56
2024/02/08 02:03:23;;;;;;;;;;;;;;;;;;4962742;28;5067;-56
2024/02/08 02:05:48;;;;;;;;;;;;;;;;;;4962632;28;4698;-56
2024/02/08 02:08:24;;;;;;;;;;;;;;;;;;4965926;28;4714;-57
2024/02/08 02:10:54;;;;;;;;;;;;;;;;;;4942895;28;4701;-57
2024/02/08 02:13:19;;;;;;;;;;;;;;;;;;4947822;28;5201;-58
2024/02/08 02:15:44;;;;;;;;;;;;;;;;;;4942237;28;3633;-58
2024/02/08 02:18:12;;;;;;;;;;;;;;;;;;4946364;28;5411;-56
2024/02/08 02:20:37;;;;;;;;;;;;;;;;;;4967682;28;4755;-57
2024/02/08 02:23:09;;;;;;;;;;;;;;;;;;4961765;28;5097;-56
2024/02/08 02:25:34;;;;;;;;;;;;;;;;;;4962692;28;4553;-57
2024/02/08 02:28:00;;;;;;;;;;;;;;;;;;4966865;28;3461;-57
2024/02/08 02:30:26;;;;;;;;;;;;;;;;;;4962115;28;5117;-57
2024/02/08 02:32:52;;;;;;;;;;;;;;;;;;4965770;28;5121;-58
2024/02/08 02:35:17;;;;;;;;;;;;;;;;;;4962771;28;4603;-57
2024/02/08 02:37:46;;;;;;;;;;;;;;;;;;4940501;28;5138;-56
2024/02/08 02:40:22;;;;;;;;;;;;;;;;;;4951548;28;3597;-57
2024/02/08 02:42:51;;;;;;;;;;;;;;;;;;4963364;28;5118;-56
2024/02/08 02:45:21;;;;;;;;;;;;;;;;;;4962803;28;4870;-57
2024/02/08 02:47:50;;;;;;;;;;;;;;;;;;4955998;28;5045;-56
2024/02/08 02:50:18;;;;;;;;;;;;;;;;;;4963844;28;5161;-58
2024/02/08 02:52:45;;;;;;;;;;;;;;;;;;4962524;28;4571;-57
2024/02/08 02:55:10;;;;;;;;;;;;;;;;;;4962009;28;3279;-56
2024/02/08 02:57:36;;;;;;;;;;;;;;;;;;4965166;28;5071;-56
2024/02/08 03:00:03;;;;;;;;;;;;;;;;;;4962005;28;4561;-57
2024/02/08 03:02:28;;;;;;;;;;;;;;;;;;4963696;28;5139;-56
2024/02/08 03:04:53;;;;;;;;;;;;;;;;;;4967280;28;5062;-57
2024/02/08 03:07:19;;;;;;;;;;;;;;;;;;4959956;28;6041;-58
2024/02/08 03:09:46;;;;;;;;;;;;;;;;;;4966316;28;3572;-58
2024/02/08 03:12:12;;;;;;;;;;;;;;;;;;4966921;28;4550;-57
2024/02/08 03:14:40;;;;;;;;;;;;;;;;;;4967074;28;4913;-58
2024/02/08 03:17:06;;;;;;;;;;;;;;;;;;4960072;28;5124;-58
2024/02/08 03:19:35;;;;;;;;;;;;;;;;;;4964230;28;4711;-57
2024/02/08 03:22:07;;;;;;;;;;;;;;;;;;4961957;28;3413;-57
2024/02/08 03:24:35;;;;;;;;;;;;;;;;;;4953580;28;4450;-57
2024/02/08 03:27:01;;;;;;;;;;;;;;;;;;4963240;28;4708;-59
2024/02/08 03:29:26;;;;;;;;;;;;;;;;;;4963762;28;5190;-57
2024/02/08 03:31:52;;;;;;;;;;;;;;;;;;4964653;28;5431;-57
2024/02/08 03:34:23;;;;;;;;;;;;;;;;;;4962902;28;5117;-59
2024/02/08 03:36:51;;;;;;;;;;;;;;;;;;4967225;28;2274;-57
2024/02/08 03:39:25;;;;;;;;;;;;;;;;;;4958449;28;5962;-57
2024/02/08 03:42:01;;;;;;;;;;;;;;;;;;4966734;28;4557;-57
2024/02/08 03:44:29;;;;;;;;;;;;;;;;;;4964841;28;4977;-57
2024/02/08 03:46:55;;;;;;;;;;;;;;;;;;4944346;28;5125;-57
2024/02/08 03:49:21;;;;;;;;;;;;;;;;;;4948917;28;5086;-57
2024/02/08 03:51:47;;;;;;;;;;;;;;;;;;4964448;28;3495;-57
2024/02/08 03:54:16;;;;;;;;;;;;;;;;;;4965889;28;5303;-57
2024/02/08 03:56:42;;;;;;;;;;;;;;;;;;4947152;28;5126;-57
2024/02/08 03:59:11;;;;;;;;;;;;;;;;;;4948860;28;5313;-56
2024/02/08 04:01:37;;;;;;;;;;;;;;;;;;4923598;28;5207;-57
2024/02/08 04:04:12;;;;;;;;;;;;;;;;;;4929287;28;1151;-58
2024/02/08 04:07:00;;;;;;;;;;;;;;;;;;4948149;28;5621;-57
2024/02/08 04:09:36;;;;;;;;;;;;;;;;;;4938293;28;4517;-57
2024/02/08 04:55:47;;;;;;;;;;;;;;;;;;4939159;28;4551;-56
2024/02/08 04:58:12;;;;;;;;;;;;;;;;;;4955504;28;3353;-57
2024/02/08 05:00:37;;;;;;;;;;;;;;;;;;4959628;28;5207;-57
2024/02/08 05:03:03;;;;;;;;;;;;;;;;;;4947372;28;5758;-57
2024/02/08 05:05:28;;;;;;;;;;;;;;;;;;4961240;28;5155;-59
2024/02/08 05:07:53;;;;;;;;;;;;;;;;;;4939456;28;4545;-57
2024/02/08 05:10:19;;;;;;;;;;;;;;;;;;4961662;28;5096;-58
2024/02/08 05:12:47;;;;;;;;;;;;;;;;;;4959794;28;3870;-58
2024/02/08 05:15:13;;;;;;;;;;;;;;;;;;4949299;28;5093;-57
2024/02/08 05:17:40;;;;;;;;;;;;;;;;;;4961479;28;4818;-58
2024/02/08 05:20:11;;;;;;;;;;;;;;;;;;4955689;28;5246;-57
2024/02/08 05:22:37;;;;;;;;;;;;;;;;;;4963039;28;4799;-58
2024/02/08 05:25:02;;;;;;;;;;;;;;;;;;4958327;28;3464;-57
2024/02/08 05:27:28;;;;;;;;;;;;;;;;;;4964305;28;5083;-57
2024/02/08 05:29:55;;;;;;;;;;;;;;;;;;4958947;28;4668;-57
2024/02/08 05:32:23;;;;;;;;;;;;;;;;;;4958192;28;4593;-57
2024/02/08 05:34:50;;;;;;;;;;;;;;;;;;4957693;28;4690;-57
2024/02/08 05:37:16;;;;;;;;;;;;;;;;;;4967638;28;3266;-59
2024/02/08 05:39:41;;;;;;;;;;;;;;;;;;4970162;28;4686;-57
2024/02/08 05:42:06;;;;;;;;;;;;;;;;;;4963884;28;4528;-57
2024/02/08 05:44:31;;;;;;;;;;;;;;;;;;4964010;28;5074;-57
2024/02/08 05:46:57;;;;;;;;;;;;;;;;;;4962936;28;5275;-57
2024/02/08 05:49:25;;;;;;;;;;;;;;;;;;4946421;28;5090;-57
2024/02/08 05:51:52;;;;;;;;;;;;;;;;;;4962380;28;3960;-57
2024/02/08 05:54:20;;;;;;;;;;;;;;;;;;4959278;28;4694;-58
2024/02/08 05:56:49;;;;;;;;;;;;;;;;;;4947070;28;5153;-58
2024/02/08 05:59:18;;;;;;;;;;;;;;;;;;4965395;28;5094;-58
2024/02/08 06:01:54;;;;;;;;;;;;;;;;;;4967381;28;4651;-56
2024/02/08 06:04:25;;;;;;;;;;;;;;;;;;4965460;28;5205;-57
2024/02/08 06:07:05;;;;;;;;;;;;;;;;;;4962328;28;3733;-58
2024/02/08 06:12:16;;;;;;;;;;;;;;;;;;4964929;28;4717;-57
2024/02/08 06:14:42;;;;;;;;;;;;;;;;;;4963453;28;4757;-56
2024/02/08 06:17:08;;;;;;;;;;;;;;;;;;4959954;28;4991;-56
2024/02/08 06:19:37;;;;;;;;;;;;;;;;;;4962483;28;4574;-57
2024/02/08 06:22:16;;;;;;;;;;;;;;;;;;4957541;28;3689;-57
2024/02/08 06:24:44;;;;;;;;;;;;;;;;;;4956195;28;4899;-57
2024/02/08 06:27:23;;;;;;;;;;;;;;;;;;4962197;28;5072;-57
2024/02/08 06:29:49;;;;;;;;;;;;;;;;;;4945314;28;5075;-57
2024/02/08 06:32:33;;;;;;;;;;;;;;;;;;4962367;28;5197;-58
2024/02/08 06:35:09;;;;;;;;;;;;;;;;;;4934419;28;4569;-56
2024/02/08 06:37:42;;;;;;;;;;;;;;;;;;4969680;28;4953;-58
2024/02/08 06:40:17;;;;;;;;;;;;;;;;;;4957821;28;2934;-58
2024/02/08 06:43:25;;;;;;;;;;;;;;;;;;4953252;28;5279;-58
2024/02/08 07:39:34;;;;;;;;;;;;;;;;;;4958456;28;4858;-59
2024/02/08 07:42:12;;;;;;;;;;;;;;;;;;4960325;28;5069;-59
2024/02/08 07:44:39;;;;;;;;;;;;;;;;;;4953412;28;4481;-60
2024/02/08 07:47:05;;;;;;;;;;;;;;;;;;4968249;28;5184;-60
2024/02/08 07:49:42;;;;;;;;;;;;;;;;;;4965967;28;4965;-59
2024/02/08 07:52:19;;;;;;;;;;;;;;;;;;4967829;28;1171;-59
2024/02/08 07:54:56;;;;;;;;;;;;;;;;;;4964509;28;4704;-59
2024/02/08 07:57:26;;;;;;;;;;;;;;;;;;4958681;28;4569;-59
2024/02/08 07:59:53;;;;;;;;;;;;;;;;;;4962558;28;5099;-60
2024/02/08 08:02:23;;;;;;;;;;;;;;;;;;4965364;28;4793;-59
2024/02/08 08:04:51;;;;;;;;;;;;;;;;;;4965884;28;4971;-59
2024/02/08 08:07:23;;;;;;;;;;;;;;;;;;4968764;28;4627;-59
2024/02/08 08:10:08;;;;;;;;;;;;;;;;;;4957949;28;1178;-59
2024/02/08 08:12:35;;;;;;;;;;;;;;;;;;4965623;28;5001;-59
2024/02/08 08:19:51;;;;;;;;;;;;;;;;;;4967199;28;4712;-59
2024/02/08 08:23:00;;;;;;;;;;;;;;;;;;4968579;28;4652;-60
2024/02/08 08:27:47;;;;;;;;;;;;;;;;;;4961870;28;4541;-60
2024/02/08 08:30:27;;;;;;;;;;;;;;;;;;4966829;28;4970;-59
2024/02/08 08:40:48;;;;;;;;;;;;;;;;;;4967501;28;4492;-59
2024/02/08 08:43:19;;;;;;;;;;;;;;;;;;4967539;28;3428;-61
2024/02/08 08:45:50;;;;;;;;;;;;;;;;;;4963320;28;4605;-59
2024/02/08 08:48:21;;;;;;;;;;;;;;;;;;4965256;28;4458;-59
2024/02/08 08:50:54;;;;;;;;;;;;;;;;;;4960637;28;4452;-60
2024/02/08 08:53:27;;;;;;;;;;;;;;;;;;4958952;28;4837;-59
2024/02/08 08:55:56;;;;;;;;;;;;;;;;;;4966602;28;4625;-59
2024/02/08 08:58:39;;;;;;;;;;;;;;;;;;4966295;28;4984;-58
2024/02/08 09:01:21;;;;;;;;;;;;;;;;;;4964927;28;3411;-58
2024/02/08 09:06:49;;;;;;;;;;;;;;;;;;4962068;28;4576;-59
2024/02/08 09:12:12;;;;;;;;;;;;;;;;;;4928375;28;5112;-59
2024/02/08 09:14:48;;;;;;;;;;;;;;;;;;4969229;28;5038;-58
2024/02/08 09:17:13;;;;;;;;;;;;;;;;;;4968489;28;4592;-59
2024/02/08 09:19:38;;;;;;;;;;;;;;;;;;4971845;28;5043;-58
2024/02/08 09:22:06;;;;;;;;;;;;;;;;;;4971220;28;1075;-60
2024/02/08 09:24:38;;;;;;;;;;;;;;;;;;4967833;28;4947;-59
2024/02/08 09:27:16;;;;;;;;;;;;;;;;;;4969379;28;4482;-58
2024/02/08 09:29:42;;;;;;;;;;;;;;;;;;4961284;28;4734;-58
2024/02/08 09:34:54;;;;;;;;;;;;;;;;;;4968796;28;4616;-58
2024/02/08 09:37:19;;;;;;;;;;;;;;;;;;4967562;28;5050;-58
2024/02/08 09:39:58;;;;;;;;;;;;;;;;;;4966738;28;3357;-58
2024/02/08 09:42:26;;;;;;;;;;;;;;;;;;4967070;28;5197;-58
2024/02/08 09:44:59;;;;;;;;;;;;;;;;;;4967975;28;4588;-58
2024/02/08 09:47:31;;;;;;;;;;;;;;;;;;4959309;28;4539;-58
2024/02/08 09:50:00;;;;;;;;;;;;;;;;;;4950142;28;4515;-58
2024/02/08 09:52:30;;;;;;;;;;;;;;;;;;4960934;28;5647;-58
2024/02/08 09:55:06;;;;;;;;;;;;;;;;;;4964760;28;1973;-58
2024/02/08 09:57:45;;;;;;;;;;;;;;;;;;4964437;28;4473;-59
2024/02/08 10:00:34;;;;;;;;;;;;;;;;;;4970892;28;4690;-59
2024/02/08 10:03:03;;;;;;;;;;;;;;;;;;4970067;28;5156;-58
2024/02/08 10:05:50;;;;;;;;;;;;;;;;;;4970868;28;5233;-58
2024/02/08 10:08:27;;;;;;;;;;;;;;;;;;4955956;28;5155;-59
2024/02/08 10:11:11;;;;;;;;;;;;;;;;;;4952926;28;4571;-58
2024/02/08 10:19:47;;;;;;;;;;;;;;;;;;4970305;28;1562;-58
2024/02/08 10:22:26;;;;;;;;;;;;;;;;;;4956122;28;5445;-58
2024/02/08 10:27:23;;;;;;;;;;;;;;;;;;4968191;28;5106;-60
2024/02/08 10:29:51;;;;;;;;;;;;;;;;;;4956925;28;4932;-59
2024/02/08 10:32:19;;;;;;;;;;;;;;;;;;4967597;28;4742;-59
2024/02/08 10:34:45;;;;;;;;;;;;;;;;;;4968957;28;5124;-58
2024/02/08 10:37:11;;;;;;;;;;;;;;;;;;4966849;28;1186;-58
2024/02/08 10:39:57;;;;;;;;;;;;;;;;;;4969900;28;5106;-58
2024/02/08 10:42:23;;;;;;;;;;;;;;;;;;4950758;28;5487;-59
2024/02/08 10:44:52;;;;;;;;;;;;;;;;;;4963782;28;4507;-58
2024/02/08 10:47:19;;;;;;;;;;;;;;;;;;4948908;28;4887;-59
2024/02/08 10:49:46;;;;;;;;;;;;;;;;;;4949487;28;5497;-58
2024/02/08 10:52:19;;;;;;;;;;;;;;;;;;4952267;28;1174;-59
2024/02/08 10:54:51;;;;;;;;;;;;;;;;;;4968388;28;5202;-58
2024/02/08 10:58:19;;;;;;;;;;;;;;;;;;4944178;28;4678;-60
2024/02/08 11:03:00;;;;;;;;;;;;;;;;;;4968311;28;5189;-59
2024/02/08 11:07:53;;;;;;;;;;;;;;;;;;4956900;28;5155;-60
2024/02/08 11:10:31;;;;;;;;;;;;;;;;;;4966898;28;4512;-60
2024/02/08 11:13:00;;;;;;;;;;;;;;;;;;4966088;28;3344;-60
2024/02/08 11:15:38;;;;;;;;;;;;;;;;;;4947603;28;4743;-60
2024/02/08 11:18:03;;;;;;;;;;;;;;;;;;4948383;28;5193;-60
2024/02/08 11:20:44;;;;;;;;;;;;;;;;;;4947968;28;5045;-59
2024/02/08 11:23:09;;;;;;;;;;;;;;;;;;4961502;28;4595;-59
2024/02/08 11:25:36;;;;;;;;;;;;;;;;;;4967802;28;5263;-59
2024/02/08 11:28:11;;;;;;;;;;;;;;;;;;4964845;28;3235;-58
2024/02/08 11:30:39;;;;;;;;;;;;;;;;;;4959336;28;4960;-59
2024/02/08 11:33:05;;;;;;;;;;;;;;;;;;4966294;28;5038;-60
2024/02/08 11:35:31;;;;;;;;;;;;;;;;;;4965658;28;4759;-58
2024/02/08 11:38:09;;;;;;;;;;;;;;;;;;4947558;28;5219;-58
2024/02/08 11:40:36;;;;;;;;;;;;;;;;;;4966439;28;5083;-58
2024/02/08 11:43:05;;;;;;;;;;;;;;;;;;4968406;28;3385;-58
2024/02/08 11:45:31;;;;;;;;;;;;;;;;;;4963085;28;5314;-59
2024/02/08 11:47:58;;;;;;;;;;;;;;;;;;4949706;28;5168;-59
2024/02/08 11:50:24;;;;;;;;;;;;;;;;;;4954856;28;5127;-57
2024/02/08 11:52:59;;;;;;;;;;;;;;;;;;4965121;28;5603;-58
2024/02/08 11:55:24;;;;;;;;;;;;;;;;;;4959890;28;4749;-58
2024/02/08 11:57:53;;;;;;;;;;;;;;;;;;4950947;28;2607;-58
2024/02/08 12:00:18;;;;;;;;;;;;;;;;;;4967881;28;4925;-58
2024/02/08 12:02:47;;;;;;;;;;;;;;;;;;4961914;28;4506;-59
2024/02/08 12:05:15;;;;;;;;;;;;;;;;;;4965852;28;5079;-58
2024/02/08 12:07:45;;;;;;;;;;;;;;;;;;4961085;28;4664;-58
2024/02/08 12:10:13;;;;;;;;;;;;;;;;;;4969147;28;1217;-59
2024/02/08 12:12:41;;;;;;;;;;;;;;;;;;4965719;28;4978;-58
2024/02/08 12:15:07;;;;;;;;;;;;;;;;;;4966991;28;5054;-58
2024/02/08 12:17:32;;;;;;;;;;;;;;;;;;4963418;28;5009;-58
2024/02/08 12:20:00;;;;;;;;;;;;;;;;;;4967580;28;4476;-59
2024/02/08 12:22:26;;;;;;;;;;;;;;;;;;4965697;28;4578;-58
2024/02/08 12:25:00;;;;;;;;;;;;;;;;;;4959607;28;3539;-58
2024/02/08 12:27:28;;;;;;;;;;;;;;;;;;4955856;28;4495;-58
2024/02/08 12:29:56;;;;;;;;;;;;;;;;;;4966948;28;5009;-58
2024/02/08 12:32:27;;;;;;;;;;;;;;;;;;4950744;28;5078;-58
2024/02/08 12:34:54;;;;;;;;;;;;;;;;;;4943466;28;5087;-58
2024/02/08 12:37:22;;;;;;;;;;;;;;;;;;4950242;28;4839;-58
2024/02/08 12:39:49;;;;;;;;;;;;;;;;;;4933074;28;1104;-59
2024/02/08 12:42:14;;;;;;;;;;;;;;;;;;4948663;28;4867;-58
2024/02/08 12:44:40;;;;;;;;;;;;;;;;;;4961726;28;5125;-58
2024/02/08 12:47:06;;;;;;;;;;;;;;;;;;4969888;28;4480;-58
2024/02/08 12:49:34;;;;;;;;;;;;;;;;;;4966674;28;5038;-58
2024/02/08 12:52:03;;;;;;;;;;;;;;;;;;4967992;28;1209;-59
2024/02/08 12:54:28;;;;;;;;;;;;;;;;;;4967318;28;4508;-58
2024/02/08 12:57:07;;;;;;;;;;;;;;;;;;4968772;28;5133;-59
2024/02/08 12:59:33;;;;;;;;;;;;;;;;;;4954211;28;4696;-59
2024/02/08 13:02:08;;;;;;;;;;;;;;;;;;4963951;28;5084;-58
2024/02/08 13:04:34;;;;;;;;;;;;;;;;;;4970206;28;4680;-59
2024/02/08 13:06:59;;;;;;;;;;;;;;;;;;4965329;28;2392;-58
2024/02/08 13:09:30;;;;;;;;;;;;;;;;;;4968108;28;4476;-58
2024/02/08 13:12:18;;;;;;;;;;;;;;;;;;4971931;28;5201;-59
2024/02/08 13:14:49;;;;;;;;;;;;;;;;;;4952985;28;5143;-58
2024/02/08 13:17:18;;;;;;;;;;;;;;;;;;4963491;28;5077;-58
2024/02/08 13:19:45;;;;;;;;;;;;;;;;;;4970891;28;5040;-60
2024/02/08 13:22:11;;;;;;;;;;;;;;;;;;4969010;28;3380;-58
2024/02/08 13:24:37;;;;;;;;;;;;;;;;;;4960264;28;4980;-58
2024/02/08 13:27:03;;;;;;;;;;;;;;;;;;4970007;28;5686;-58
2024/02/08 13:29:29;;;;;;;;;;;;;;;;;;4962762;28;5340;-58
2024/02/08 13:31:55;;;;;;;;;;;;;;;;;;4950315;28;5397;-58
2024/02/08 13:34:21;;;;;;;;;;;;;;;;;;4967629;28;4752;-58
2024/02/08 13:36:46;;;;;;;;;;;;;;;;;;4963765;28;3208;-58
2024/02/08 13:39:11;;;;;;;;;;;;;;;;;;4961980;28;4697;-59
2024/02/08 13:41:37;;;;;;;;;;;;;;;;;;4969526;28;5684;-58
2024/02/08 13:44:02;;;;;;;;;;;;;;;;;;4962771;28;4541;-59
2024/02/08 13:46:30;;;;;;;;;;;;;;;;;;4971045;28;5081;-58
2024/02/08 13:48:57;;;;;;;;;;;;;;;;;;4967900;28;2623;-59
2024/02/08 13:51:22;;;;;;;;;;;;;;;;;;4964586;28;4984;-58
2024/02/08 13:53:50;;;;;;;;;;;;;;;;;;4968968;28;4681;-59
2024/02/08 13:56:15;;;;;;;;;;;;;;;;;;4953098;28;5326;-58
2024/02/08 13:58:40;;;;;;;;;;;;;;;;;;4969357;28;4507;-59
2024/02/08 14:01:06;;;;;;;;;;;;;;;;;;4968754;28;3758;-59
2024/02/08 14:03:34;;;;;;;;;;;;;;;;;;4967530;28;5185;-59
2024/02/08 14:06:00;;;;;;;;;;;;;;;;;;4969423;28;5096;-60
2024/02/08 14:08:27;;;;;;;;;;;;;;;;;;4967460;28;4538;-57
2024/02/08 14:10:53;;;;;;;;;;;;;;;;;;4969993;28;4471;-60
2024/02/08 14:13:28;;;;;;;;;;;;;;;;;;4966834;28;5415;-60
2024/02/08 14:15:55;;;;;;;;;;;;;;;;;;4962258;28;3404;-60
2024/02/08 14:18:23;;;;;;;;;;;;;;;;;;4969739;28;5099;-60
2024/02/08 14:20:56;;;;;;;;;;;;;;;;;;4967925;28;4774;-59
2024/02/08 14:23:31;;;;;;;;;;;;;;;;;;4962929;28;4620;-59
2024/02/08 14:28:42;;;;;;;;;;;;;;;;;;4962402;28;5201;-58
2024/02/08 14:31:11;;;;;;;;;;;;;;;;;;4956834;28;3338;-59
2024/02/08 14:33:36;;;;;;;;;;;;;;;;;;4965437;28;5288;-59
2024/02/08 14:36:06;;;;;;;;;;;;;;;;;;4967867;28;4654;-59
2024/02/08 14:38:35;;;;;;;;;;;;;;;;;;4966140;28;5093;-59
2024/02/08 14:41:02;;;;;;;;;;;;;;;;;;4966195;28;4539;-59
2024/02/08 14:43:31;;;;;;;;;;;;;;;;;;4967908;28;4516;-59
2024/02/08 14:46:05;;;;;;;;;;;;;;;;;;4966724;28;2360;-59
2024/02/08 14:48:37;;;;;;;;;;;;;;;;;;4961121;28;4870;-59
2024/02/08 14:51:29;;;;;;;;;;;;;;;;;;4964831;28;4450;-59
2024/02/08 14:53:57;;;;;;;;;;;;;;;;;;4963354;28;4993;-59
2024/02/08 14:56:23;;;;;;;;;;;;;;;;;;4966837;28;4611;-59
2024/02/08 14:59:09;;;;;;;;;;;;;;;;;;4964741;28;4534;-59
2024/02/08 15:01:38;;;;;;;;;;;;;;;;;;4958485;28;5289;-59
2024/02/08 15:04:07;;;;;;;;;;;;;;;;;;4964457;28;3989;-60
2024/02/08 15:06:38;;;;;;;;;;;;;;;;;;4965941;28;4997;-59
2024/02/08 15:11:57;;;;;;;;;;;;;;;;;;4955236;28;4963;-59
2024/02/08 15:14:28;;;;;;;;;;;;;;;;;;4967153;28;5097;-59
2024/02/08 15:16:54;;;;;;;;;;;;;;;;;;4945657;28;5132;-59
2024/02/08 15:19:25;;;;;;;;;;;;;;;;;;4966150;28;5065;-60
2024/02/08 15:21:52;;;;;;;;;;;;;;;;;;4967614;28;3884;-59
2024/02/08 15:24:21;;;;;;;;;;;;;;;;;;4966740;28;5015;-60
2024/02/08 15:26:50;;;;;;;;;;;;;;;;;;4968130;28;5023;-59
2024/02/08 15:29:33;;;;;;;;;;;;;;;;;;4958308;28;5435;-59
2024/02/08 15:32:05;;;;;;;;;;;;;;;;;;4953063;28;5148;-59
2024/02/08 15:34:46;;;;;;;;;;;;;;;;;;4955002;28;5130;-59
2024/02/08 15:37:20;;;;;;;;;;;;;;;;;;4968824;28;2186;-59
2024/02/08 15:42:17;;;;;;;;;;;;;;;;;;4968904;28;5145;-59
2024/02/08 15:44:52;;;;;;;;;;;;;;;;;;4967868;28;5045;-59
2024/02/08 15:47:18;;;;;;;;;;;;;;;;;;4964079;28;4971;-59
2024/02/08 15:49:53;;;;;;;;;;;;;;;;;;4964367;28;4622;-59
2024/02/08 15:52:22;;;;;;;;;;;;;;;;;;4962481;28;4766;-59
2024/02/08 15:54:54;;;;;;;;;;;;;;;;;;4966474;28;2009;-59
2024/02/08 15:57:25;;;;;;;;;;;;;;;;;;4964013;28;4462;-59
2024/02/08 15:59:57;;;;;;;;;;;;;;;;;;4956992;28;5029;-59
2024/02/08 16:02:23;;;;;;;;;;;;;;;;;;4961849;28;5092;-59
2024/02/08 16:04:50;;;;;;;;;;;;;;;;;;4967547;28;4689;-59
2024/02/08 16:07:15;;;;;;;;;;;;;;;;;;4965591;28;3341;-59
2024/02/08 16:09:45;;;;;;;;;;;;;;;;;;4948456;28;4686;-59
2024/02/08 16:12:16;;;;;;;;;;;;;;;;;;4962882;28;5922;-59
2024/02/08 16:14:48;;;;;;;;;;;;;;;;;;4966276;28;5174;-59
2024/02/08 16:22:52;;;;;;;;;;;;;;;;;;4948233;28;4556;-59
2024/02/08 16:25:23;;;;;;;;;;;;;;;;;;4959097;28;5070;-60
2024/02/08 16:27:48;;;;;;;;;;;;;;;;;;4962083;28;3235;-60
2024/02/08 16:30:28;;;;;;;;;;;;;;;;;;4965046;28;5129;-59
2024/02/08 16:33:08;;;;;;;;;;;;;;;;;;4947565;28;5047;-59
2024/02/08 16:35:40;;;;;;;;;;;;;;;;;;4967009;28;5107;-59
2024/02/08 16:38:09;;;;;;;;;;;;;;;;;;4968473;28;5076;-60
2024/02/08 16:40:43;;;;;;;;;;;;;;;;;;4943898;28;5170;-59
2024/02/08 16:43:12;;;;;;;;;;;;;;;;;;4951431;28;2247;-59
2024/02/08 16:45:56;;;;;;;;;;;;;;;;;;4961134;28;4854;-59
2024/02/08 16:48:33;;;;;;;;;;;;;;;;;;4946610;28;4488;-59
2024/02/08 16:51:16;;;;;;;;;;;;;;;;;;4946650;28;5016;-59
2024/02/08 16:53:43;;;;;;;;;;;;;;;;;;4963255;28;4534;-59
2024/02/08 16:56:10;;;;;;;;;;;;;;;;;;4948939;28;4537;-59
2024/02/08 16:58:43;;;;;;;;;;;;;;;;;;4958939;28;5097;-59
2024/02/08 17:07:03;;;;;;;;;;;;;;;;;;4946893;28;5613;-58
2024/02/08 17:09:34;;;;;;;;;;;;;;;;;;4960790;28;4646;-59
2024/02/08 17:12:00;;;;;;;;;;;;;;;;;;4962238;28;4502;-59
2024/02/08 17:14:43;;;;;;;;;;;;;;;;;;4959464;28;4956;-58
2024/02/08 17:17:21;;;;;;;;;;;;;;;;;;4959480;28;5056;-58
2024/02/08 17:19:51;;;;;;;;;;;;;;;;;;4959895;28;4559;-58
2024/02/08 17:22:40;;;;;;;;;;;;;;;;;;4957026;28;3237;-58
2024/02/08 17:27:49;;;;;;;;;;;;;;;;;;4958772;28;4895;-58
2024/02/08 17:30:17;;;;;;;;;;;;;;;;;;4958139;28;4697;-60
2024/02/08 17:32:43;;;;;;;;;;;;;;;;;;4966014;28;5063;-59
2024/02/08 17:35:15;;;;;;;;;;;;;;;;;;4958068;28;4917;-59
2024/02/08 17:37:48;;;;;;;;;;;;;;;;;;4963382;28;4528;-58
2024/02/08 17:40:16;;;;;;;;;;;;;;;;;;4971418;28;2423;-59
2024/02/08 17:42:58;;;;;;;;;;;;;;;;;;4967099;28;4496;-58
2024/02/08 17:45:47;;;;;;;;;;;;;;;;;;4964505;28;4673;-58
2024/02/08 17:48:13;;;;;;;;;;;;;;;;;;4966104;28;4702;-59
2024/02/08 17:50:41;;;;;;;;;;;;;;;;;;4952176;28;5155;-58
2024/02/08 17:53:12;;;;;;;;;;;;;;;;;;4971270;28;4999;-58
2024/02/08 17:55:39;;;;;;;;;;;;;;;;;;4968058;28;4990;-58
2024/02/08 17:58:12;;;;;;;;;;;;;;;;;;4953984;28;2409;-58
2024/02/08 18:00:41;;;;;;;;;;;;;;;;;;4952965;28;5023;-58
2024/02/08 18:03:07;;;;;;;;;;;;;;;;;;4970513;28;4711;-59
2024/02/08 18:05:35;;;;;;;;;;;;;;;;;;4970554;28;5062;-59
2024/02/08 18:08:06;;;;;;;;;;;;;;;;;;4969320;28;4548;-59
2024/02/08 18:10:37;;;;;;;;;;;;;;;;;;4964732;28;4532;-59
2024/02/08 18:13:09;;;;;;;;;;;;;;;;;;4969318;28;3923;-59
2024/02/08 18:15:35;;;;;;;;;;;;;;;;;;4967070;28;4448;-59
2024/02/08 18:18:04;;;;;;;;;;;;;;;;;;4966833;28;4500;-58
2024/02/08 18:20:33;;;;;;;;;;;;;;;;;;4967725;28;4981;-58
2024/02/08 18:23:02;;;;;;;;;;;;;;;;;;4959497;28;4805;-59
2024/02/08 18:25:30;;;;;;;;;;;;;;;;;;4962037;28;4914;-58
2024/02/08 18:27:59;;;;;;;;;;;;;;;;;;4964636;28;3422;-59
2024/02/08 18:30:26;;;;;;;;;;;;;;;;;;4964330;28;4525;-59
2024/02/08 18:32:54;;;;;;;;;;;;;;;;;;4967974;28;4979;-59
2024/02/08 18:35:23;;;;;;;;;;;;;;;;;;4940264;28;5193;-59
2024/02/08 18:37:53;;;;;;;;;;;;;;;;;;4969085;28;5058;-59
2024/02/08 18:40:23;;;;;;;;;;;;;;;;;;4948473;28;4550;-59
2024/02/08 18:42:54;;;;;;;;;;;;;;;;;;4959053;28;2172;-59
2024/02/08 18:45:24;;;;;;;;;;;;;;;;;;4963389;28;5075;-59
2024/02/08 18:47:52;;;;;;;;;;;;;;;;;;4951753;28;5116;-59
2024/02/08 18:50:18;;;;;;;;;;;;;;;;;;4969865;28;4521;-58
2024/02/08 18:52:44;;;;;;;;;;;;;;;;;;4963891;28;5208;-59
2024/02/08 18:55:09;;;;;;;;;;;;;;;;;;4958965;28;3504;-61
2024/02/08 18:57:37;;;;;;;;;;;;;;;;;;4964990;28;4605;-63
2024/02/08 19:00:03;;;;;;;;;;;;;;;;;;4962788;28;4540;-63
2024/02/08 19:02:29;;;;;;;;;;;;;;;;;;4933866;28;5211;-64
2024/02/08 19:04:58;;;;;;;;;;;;;;;;;;4963358;28;4534;-61
2024/02/08 19:07:25;;;;;;;;;;;;;;;;;;4966191;28;4543;-59
2024/02/08 19:09:50;;;;;;;;;;;;;;;;;;4961491;28;3493;-59
2024/02/08 19:12:19;;;;;;;;;;;;;;;;;;4955458;28;4518;-61
2024/02/08 19:14:44;;;;;;;;;;;;;;;;;;4958937;28;5107;-62
2024/02/08 19:17:13;;;;;;;;;;;;;;;;;;4958716;28;5205;-61
2024/02/08 19:19:40;;;;;;;;;;;;;;;;;;4935548;28;4998;-60
2024/02/08 19:22:12;;;;;;;;;;;;;;;;;;4961686;28;3639;-60
2024/02/08 19:24:38;;;;;;;;;;;;;;;;;;4960543;28;4986;-63
2024/02/08 19:27:04;;;;;;;;;;;;;;;;;;4960053;28;5115;-61
2024/02/08 19:29:30;;;;;;;;;;;;;;;;;;4964808;28;5094;-62
2024/02/08 19:31:56;;;;;;;;;;;;;;;;;;4964657;28;5307;-62
2024/02/08 19:34:29;;;;;;;;;;;;;;;;;;4961228;28;5121;-61
2024/02/08 19:36:58;;;;;;;;;;;;;;;;;;4966659;28;3414;-61
2024/02/08 19:41:51;;;;;;;;;;;;;;;;;;4962042;28;5156;-61
2024/02/08 19:44:24;;;;;;;;;;;;;;;;;;4942816;28;4969;-60
2024/02/08 19:46:57;;;;;;;;;;;;;;;;;;4956998;28;5063;-59
2024/02/08 19:49:26;;;;;;;;;;;;;;;;;;4961226;28;5189;-59
2024/02/08 19:52:06;;;;;;;;;;;;;;;;;;4961302;28;3396;-59
2024/02/08 19:54:37;;;;;;;;;;;;;;;;;;4955972;28;4712;-61
2024/02/08 19:57:05;;;;;;;;;;;;;;;;;;4958059;28;4749;-60
2024/02/08 19:59:31;;;;;;;;;;;;;;;;;;4958963;28;5078;-61
2024/02/08 20:01:56;;;;;;;;;;;;;;;;;;4960785;28;4616;-60